sensor_id;sensor_type;location;lat;lon;timestamp;pressure;altitude;pressure_sealevel;temperature;humidity
15529;BME280;7866;52.280;9.500;2023-12-07T00:00:24;100508.72;;;3.16;100.00
15529;BME280;7866;52.280;9.500;2023-12-07T00:05:26;100507.97;;;3.14;100.00
15529;BME280;7866;52.280;9.500;2023-12-07T00:10:29;100521.94;;;3.16;100.00
15529;BME280;7866;52.280;9.500;2023-12-07T00:15:31;100518.09;;;3.20;100.00
15529;BME280;7866;52.280;9.500;2023-12-07T00:20:32;100525.44;;;3.16;100.00
15529;BME280;7866;52.280;9.500;2023-12-07T00:25:36;100532.03;;;3.22;100.00
15529;BME280;7866;52.280;9.500;2023-12-07T00:30:38;100525.06;;;3.21;100.00
15529;BME280;7866;52.280;9.500;2023-12-07T00:35:39;100533.13;;;3.19;100.00
15529;BME280;7866;52.280;9.500;2023-12-07T00:40:42;100532.88;;;3.22;100.00
15529;BME280;7866;52.280;9.500;2023-12-07T00:45:44;100541.78;;;3.21;100.00
15529;BME280;7866;52.280;9.500;2023-12-07T00:50:48;100534.59;;;3.24;100.00
15529;BME280;7866;52.280;9.500;2023-12-07T00:55:51;100536.50;;;3.21;100.00
15529;BME280;7866;52.280;9.500;2023-12-07T01:00:53;100549.28;;;3.28;100.00
15529;BME280;7866;52.280;9.500;2023-12-07T01:05:54;100548.75;;;3.22;100.00
15529;BME280;7866;52.280;9.500;2023-12-07T01:10:57;100556.59;;;3.24;100.00
15529;BME280;7866;52.280;9.500;2023-12-07T01:15:59;100564.63;;;3.22;100.00
15529;BME280;7866;52.280;9.500;2023-12-07T01:21:01;100565.25;;;3.26;100.00
15529;BME280;7866;52.280;9.500;2023-12-07T01:26:05;100575.00;;;3.26;100.00
15529;BME280;7866;52.280;9.500;2023-12-07T01:31:07;100573.09;;;3.28;99.79
15529;BME280;7866;52.280;9.500;2023-12-07T01:36:09;100589.41;;;3.21;99.41
15529;BME280;7866;52.280;9.500;2023-12-07T01:41:13;100588.47;;;3.22;99.40
15529;BME280;7866;52.280;9.500;2023-12-07T01:46:15;100597.50;;;3.20;99.37
15529;BME280;7866;52.280;9.500;2023-12-07T01:51:18;100595.69;;;3.20;99.44
15529;BME280;7866;52.280;9.500;2023-12-07T01:56:23;100590.50;;;3.19;99.03
15529;BME280;7866;52.280;9.500;2023-12-07T02:01:25;100597.09;;;3.13;98.65
15529;BME280;7866;52.280;9.500;2023-12-07T02:06:27;100595.19;;;3.15;99.07
15529;BME280;7866;52.280;9.500;2023-12-07T02:11:30;100591.09;;;3.22;99.28
15529;BME280;7866;52.280;9.500;2023-12-07T02:16:37;100599.56;;;3.28;98.62
15529;BME280;7866;52.280;9.500;2023-12-07T02:21:47;100600.50;;;3.15;98.13
15529;BME280;7866;52.280;9.500;2023-12-07T02:26:51;100608.31;;;3.17;98.17
15529;BME280;7866;52.280;9.500;2023-12-07T02:31:53;100601.81;;;3.21;97.53
15529;BME280;7866;52.280;9.500;2023-12-07T02:36:58;100601.94;;;3.31;97.67
15529;BME280;7866;52.280;9.500;2023-12-07T02:42:04;100615.03;;;3.21;96.73
15529;BME280;7866;52.280;9.500;2023-12-07T02:47:08;100613.25;;;3.21;97.66
15529;BME280;7866;52.280;9.500;2023-12-07T02:52:10;100618.19;;;3.26;96.86
15529;BME280;7866;52.280;9.500;2023-12-07T02:57:13;100623.69;;;3.23;96.80
15529;BME280;7866;52.280;9.500;2023-12-07T03:02:15;100614.91;;;3.22;97.10
15529;BME280;7866;52.280;9.500;2023-12-07T03:07:16;100614.22;;;3.20;97.52
15529;BME280;7866;52.280;9.500;2023-12-07T03:12:19;100620.13;;;3.24;97.38
15529;BME280;7866;52.280;9.500;2023-12-07T03:17:21;100627.31;;;3.22;97.28
15529;BME280;7866;52.280;9.500;2023-12-07T03:22:23;100626.25;;;3.25;97.46
15529;BME280;7866;52.280;9.500;2023-12-07T03:27:26;100625.41;;;3.24;97.95
15529;BME280;7866;52.280;9.500;2023-12-07T03:32:28;100638.16;;;3.30;97.43
15529;BME280;7866;52.280;9.500;2023-12-07T03:37:30;100635.44;;;3.32;97.76
15529;BME280;7866;52.280;9.500;2023-12-07T03:42:33;100644.81;;;3.36;97.33
15529;BME280;7866;52.280;9.500;2023-12-07T03:47:35;100650.47;;;3.31;96.95
15529;BME280;7866;52.280;9.500;2023-12-07T03:52:36;100657.25;;;3.22;96.63
15529;BME280;7866;52.280;9.500;2023-12-07T03:57:39;100665.47;;;3.19;96.89
15529;BME280;7866;52.280;9.500;2023-12-07T04:02:41;100668.09;;;3.19;97.24
15529;BME280;7866;52.280;9.500;2023-12-07T04:07:42;100654.81;;;3.08;97.58
15529;BME280;7866;52.280;9.500;2023-12-07T04:12:45;100661.91;;;3.08;97.94
15529;BME280;7866;52.280;9.500;2023-12-07T04:17:47;100664.78;;;3.05;98.43
15529;BME280;7866;52.280;9.500;2023-12-07T04:22:49;100672.72;;;3.05;98.30
15529;BME280;7866;52.280;9.500;2023-12-07T04:27:52;100664.94;;;3.14;98.91
15529;BME280;7866;52.280;9.500;2023-12-07T04:32:57;100672.16;;;3.12;98.76
15529;BME280;7866;52.280;9.500;2023-12-07T04:37:58;100674.81;;;3.12;99.31
15529;BME280;7866;52.280;9.500;2023-12-07T04:43:01;100670.75;;;3.19;98.73
15529;BME280;7866;52.280;9.500;2023-12-07T04:48:03;100666.78;;;3.25;98.30
15529;BME280;7866;52.280;9.500;2023-12-07T04:53:05;100672.53;;;3.19;98.58
15529;BME280;7866;52.280;9.500;2023-12-07T04:58:08;100659.53;;;3.16;98.26
15529;BME280;7866;52.280;9.500;2023-12-07T05:03:10;100663.03;;;3.16;98.36
15529;BME280;7866;52.280;9.500;2023-12-07T05:08:11;100663.75;;;3.18;98.54
15529;BME280;7866;52.280;9.500;2023-12-07T05:13:14;100662.28;;;3.14;98.00
15529;BME280;7866;52.280;9.500;2023-12-07T05:18:16;100666.25;;;3.09;98.31
15529;BME280;7866;52.280;9.500;2023-12-07T05:23:18;100666.75;;;3.14;98.90
15529;BME280;7866;52.280;9.500;2023-12-07T05:28:21;100669.28;;;3.15;98.67
15529;BME280;7866;52.280;9.500;2023-12-07T05:33:23;100671.66;;;3.07;98.50
15529;BME280;7866;52.280;9.500;2023-12-07T05:38:25;100677.38;;;3.01;98.79
15529;BME280;7866;52.280;9.500;2023-12-07T05:43:28;100677.38;;;3.01;98.87
15529;BME280;7866;52.280;9.500;2023-12-07T05:48:29;100673.56;;;3.05;98.95
15529;BME280;7866;52.280;9.500;2023-12-07T05:53:31;100670.63;;;2.97;99.51
15529;BME280;7866;52.280;9.500;2023-12-07T05:58:37;100671.03;;;3.04;99.22
15529;BME280;7866;52.280;9.500;2023-12-07T06:03:39;100685.72;;;3.08;99.18
15529;BME280;7866;52.280;9.500;2023-12-07T06:08:42;100691.31;;;3.16;99.65
15529;BME280;7866;52.280;9.500;2023-12-07T06:13:45;100695.50;;;3.18;99.70
15529;BME280;7866;52.280;9.500;2023-12-07T06:18:47;100675.78;;;3.22;99.37
15529;BME280;7866;52.280;9.500;2023-12-07T06:23:49;100687.81;;;3.15;98.70
15529;BME280;7866;52.280;9.500;2023-12-07T06:28:52;100685.88;;;3.17;98.98
15529;BME280;7866;52.280;9.500;2023-12-07T06:33:53;100686.38;;;3.22;98.98
15529;BME280;7866;52.280;9.500;2023-12-07T06:38:55;100693.13;;;3.27;98.95
15529;BME280;7866;52.280;9.500;2023-12-07T06:43:59;100707.34;;;3.26;98.71
15529;BME280;7866;52.280;9.500;2023-12-07T06:49:01;100709.00;;;3.27;98.24
15529;BME280;7866;52.280;9.500;2023-12-07T06:54:04;100715.19;;;3.27;98.31
15529;BME280;7866;52.280;9.500;2023-12-07T06:59:07;100707.00;;;3.30;97.98
15529;BME280;7866;52.280;9.500;2023-12-07T07:04:10;100706.50;;;3.25;97.92
15529;BME280;7866;52.280;9.500;2023-12-07T07:09:12;100715.06;;;3.29;98.04
15529;BME280;7866;52.280;9.500;2023-12-07T07:14:15;100710.19;;;3.22;97.45
15529;BME280;7866;52.280;9.500;2023-12-07T07:19:16;100718.75;;;3.26;97.98
15529;BME280;7866;52.280;9.500;2023-12-07T07:24:18;100731.06;;;3.27;97.93
15529;BME280;7866;52.280;9.500;2023-12-07T07:29:21;100722.38;;;3.25;97.70
15529;BME280;7866;52.280;9.500;2023-12-07T07:34:23;100720.56;;;3.26;97.84
15529;BME280;7866;52.280;9.500;2023-12-07T07:39:25;100729.00;;;3.31;98.25
15529;BME280;7866;52.280;9.500;2023-12-07T07:44:28;100724.06;;;3.26;97.96
15529;BME280;7866;52.280;9.500;2023-12-07T07:49:30;100730.44;;;3.24;98.44
15529;BME280;7866;52.280;9.500;2023-12-07T07:54:31;100741.03;;;3.24;97.08
15529;BME280;7866;52.280;9.500;2023-12-07T07:59:34;100737.41;;;3.25;97.57
15529;BME280;7866;52.280;9.500;2023-12-07T08:04:36;100742.25;;;3.31;98.00
15529;BME280;7866;52.280;9.500;2023-12-07T08:09:38;100740.22;;;3.34;97.18
15529;BME280;7866;52.280;9.500;2023-12-07T08:14:41;100740.16;;;3.47;96.89
15529;BME280;7866;52.280;9.500;2023-12-07T08:19:44;100749.53;;;3.40;96.07
15529;BME280;7866;52.280;9.500;2023-12-07T08:24:45;100753.38;;;3.47;96.64
15529;BME280;7866;52.280;9.500;2023-12-07T08:29:49;100743.47;;;3.38;95.90
15529;BME280;7866;52.280;9.500;2023-12-07T08:34:50;100759.78;;;3.44;96.85
15529;BME280;7866;52.280;9.500;2023-12-07T08:39:52;100752.88;;;3.42;96.43
15529;BME280;7866;52.280;9.500;2023-12-07T08:44:55;100751.63;;;3.48;95.79
15529;BME280;7866;52.280;9.500;2023-12-07T08:49:57;100749.19;;;3.44;95.88
15529;BME280;7866;52.280;9.500;2023-12-07T08:54:58;100759.44;;;3.49;95.83
15529;BME280;7866;52.280;9.500;2023-12-07T09:00:02;100759.31;;;3.51;95.15
15529;BME280;7866;52.280;9.500;2023-12-07T09:05:04;100761.28;;;3.60;96.03
15529;BME280;7866;52.280;9.500;2023-12-07T09:10:07;100757.81;;;3.59;95.42
15529;BME280;7866;52.280;9.500;2023-12-07T09:15:11;100767.78;;;3.56;94.52
15529;BME280;7866;52.280;9.500;2023-12-07T09:20:13;100784.03;;;3.62;93.97
15529;BME280;7866;52.280;9.500;2023-12-07T09:25:15;100770.06;;;3.60;95.09
15529;BME280;7866;52.280;9.500;2023-12-07T09:30:18;100783.31;;;3.60;93.90
15529;BME280;7866;52.280;9.500;2023-12-07T09:35:20;100784.03;;;3.62;95.00
15529;BME280;7866;52.280;9.500;2023-12-07T09:40:23;100785.00;;;3.61;94.96
15529;BME280;7866;52.280;9.500;2023-12-07T09:45:27;100771.03;;;3.59;94.58
15529;BME280;7866;52.280;9.500;2023-12-07T09:50:29;100777.44;;;3.68;94.08
15529;BME280;7866;52.280;9.500;2023-12-07T09:55:31;100768.75;;;3.66;93.79
15529;BME280;7866;52.280;9.500;2023-12-07T10:00:35;100771.31;;;3.67;93.58
15529;BME280;7866;52.280;9.500;2023-12-07T10:05:54;100773.00;;;3.68;93.98
15529;BME280;7866;52.280;9.500;2023-12-07T10:11:05;100783.88;;;3.77;93.67
15529;BME280;7866;52.280;9.500;2023-12-07T10:16:10;100777.03;;;3.85;93.35
15529;BME280;7866;52.280;9.500;2023-12-07T10:21:13;100777.16;;;3.84;92.45
15529;BME280;7866;52.280;9.500;2023-12-07T10:26:16;100767.88;;;3.89;92.13
15529;BME280;7866;52.280;9.500;2023-12-07T10:31:21;100771.03;;;3.94;92.39
15529;BME280;7866;52.280;9.500;2023-12-07T10:36:23;100767.75;;;3.91;91.57
15529;BME280;7866;52.280;9.500;2023-12-07T10:41:25;100758.34;;;3.87;92.29
15529;BME280;7866;52.280;9.500;2023-12-07T10:46:29;100753.19;;;3.85;91.44
15529;BME280;7866;52.280;9.500;2023-12-07T10:51:36;100746.81;;;3.88;91.57
15529;BME280;7866;52.280;9.500;2023-12-07T10:56:40;100749.13;;;3.92;92.03
15529;BME280;7866;52.280;9.500;2023-12-07T11:01:46;100743.81;;;3.92;91.60
15529;BME280;7866;52.280;9.500;2023-12-07T11:06:50;100743.47;;;3.97;91.99
15529;BME280;7866;52.280;9.500;2023-12-07T11:11:58;100730.97;;;3.99;91.69
15529;BME280;7866;52.280;9.500;2023-12-07T11:17:04;100724.69;;;4.00;91.85
15529;BME280;7866;52.280;9.500;2023-12-07T11:22:06;100724.69;;;4.00;91.27
15529;BME280;7866;52.280;9.500;2023-12-07T11:27:08;100718.66;;;4.09;91.30
15529;BME280;7866;52.280;9.500;2023-12-07T11:32:12;100723.50;;;4.15;91.09
15529;BME280;7866;52.280;9.500;2023-12-07T11:37:15;100713.75;;;4.16;90.71
15529;BME280;7866;52.280;9.500;2023-12-07T11:42:19;100702.53;;;4.12;91.18
15529;BME280;7866;52.280;9.500;2023-12-07T11:47:22;100704.25;;;4.25;90.31
15529;BME280;7866;52.280;9.500;2023-12-07T11:52:23;100700.97;;;4.21;90.22
15529;BME280;7866;52.280;9.500;2023-12-07T11:57:26;100712.19;;;4.25;90.63
15529;BME280;7866;52.280;9.500;2023-12-07T12:02:29;100707.72;;;4.25;90.81
15529;BME280;7866;52.280;9.500;2023-12-07T12:07:34;100709.78;;;4.22;90.99
15529;BME280;7866;52.280;9.500;2023-12-07T12:12:36;100690.75;;;4.28;90.17
15529;BME280;7866;52.280;9.500;2023-12-07T12:17:39;100683.03;;;4.36;90.33
15529;BME280;7866;52.280;9.500;2023-12-07T12:22:40;100681.22;;;4.36;90.94
15529;BME280;7866;52.280;9.500;2023-12-07T12:27:42;100686.53;;;4.36;89.96
15529;BME280;7866;52.280;9.500;2023-12-07T12:32:47;100675.78;;;4.38;89.85
15529;BME280;7866;52.280;9.500;2023-12-07T12:37:49;100683.63;;;4.39;89.42
15529;BME280;7866;52.280;9.500;2023-12-07T12:42:52;100679.50;;;4.47;90.03
15529;BME280;7866;52.280;9.500;2023-12-07T12:47:55;100675.56;;;4.52;90.37
15529;BME280;7866;52.280;9.500;2023-12-07T12:52:57;100671.78;;;4.55;89.77
15529;BME280;7866;52.280;9.500;2023-12-07T12:57:59;100666.00;;;4.61;89.86
15529;BME280;7866;52.280;9.500;2023-12-07T13:03:05;100667.34;;;4.55;89.15
15529;BME280;7866;52.280;9.500;2023-12-07T13:08:07;100664.47;;;4.47;89.86
15529;BME280;7866;52.280;9.500;2023-12-07T13:13:09;100661.31;;;4.53;89.54
15529;BME280;7866;52.280;9.500;2023-12-07T13:18:12;100651.44;;;4.44;90.17
15529;BME280;7866;52.280;9.500;2023-12-07T13:23:14;100650.84;;;4.29;89.25
15529;BME280;7866;52.280;9.500;2023-12-07T13:28:16;100649.53;;;4.24;90.95
15529;BME280;7866;52.280;9.500;2023-12-07T13:33:19;100637.34;;;4.21;90.90
15529;BME280;7866;52.280;9.500;2023-12-07T13:38:20;100630.47;;;4.18;90.69
15529;BME280;7866;52.280;9.500;2023-12-07T13:43:22;100626.06;;;4.19;91.13
15529;BME280;7866;52.280;9.500;2023-12-07T13:48:25;100625.31;;;4.28;91.17
15529;BME280;7866;52.280;9.500;2023-12-07T13:53:27;100622.06;;;4.13;91.33
15529;BME280;7866;52.280;9.500;2023-12-07T13:58:29;100608.22;;;3.87;91.67
15529;BME280;7866;52.280;9.500;2023-12-07T14:03:32;100605.31;;;3.68;92.56
15529;BME280;7866;52.280;9.500;2023-12-07T14:08:34;100604.84;;;3.39;92.62
15529;BME280;7866;52.280;9.500;2023-12-07T14:13:35;100610.31;;;3.13;94.11
15529;BME280;7866;52.280;9.500;2023-12-07T14:18:38;100623.44;;;2.91;94.49
15529;BME280;7866;52.280;9.500;2023-12-07T14:23:40;100610.84;;;2.70;95.06
15529;BME280;7866;52.280;9.500;2023-12-07T14:28:42;100612.50;;;2.60;96.39
15529;BME280;7866;52.280;9.500;2023-12-07T14:33:45;100608.44;;;2.43;96.46
15529;BME280;7866;52.280;9.500;2023-12-07T14:38:46;100611.38;;;2.39;97.49
15529;BME280;7866;52.280;9.500;2023-12-07T14:43:50;100613.22;;;2.26;97.88
15529;BME280;7866;52.280;9.500;2023-12-07T14:48:53;100614.28;;;2.10;98.39
15529;BME280;7866;52.280;9.500;2023-12-07T14:53:55;100620.03;;;2.04;99.02
15529;BME280;7866;52.280;9.500;2023-12-07T14:58:58;100626.78;;;1.95;99.02
15529;BME280;7866;52.280;9.500;2023-12-07T15:04:01;100625.22;;;1.93;99.54
15529;BME280;7866;52.280;9.500;2023-12-07T15:09:03;100630.81;;;1.88;100.00
15529;BME280;7866;52.280;9.500;2023-12-07T15:14:07;100616.03;;;1.86;99.85
15529;BME280;7866;52.280;9.500;2023-12-07T15:19:11;100633.97;;;1.93;100.00
15529;BME280;7866;52.280;9.500;2023-12-07T15:24:13;100627.53;;;1.85;100.00
15529;BME280;7866;52.280;9.500;2023-12-07T15:29:15;100622.66;;;1.79;99.85
15529;BME280;7866;52.280;9.500;2023-12-07T15:34:18;100645.28;;;1.70;100.00
15529;BME280;7866;52.280;9.500;2023-12-07T15:39:19;100631.03;;;1.72;100.00
15529;BME280;7866;52.280;9.500;2023-12-07T15:44:21;100650.03;;;1.65;100.00
15529;BME280;7866;52.280;9.500;2023-12-07T15:49:24;100644.09;;;1.61;100.00
15529;BME280;7866;52.280;9.500;2023-12-07T15:54:26;100632.06;;;1.57;100.00
15529;BME280;7866;52.280;9.500;2023-12-07T15:59:27;100622.34;;;1.58;100.00
15529;BME280;7866;52.280;9.500;2023-12-07T16:04:30;100622.88;;;1.50;100.00
15529;BME280;7866;52.280;9.500;2023-12-07T16:09:32;100616.31;;;1.43;100.00
15529;BME280;7866;52.280;9.500;2023-12-07T16:14:34;100604.72;;;1.45;100.00
15529;BME280;7866;52.280;9.500;2023-12-07T16:19:37;100595.75;;;1.48;100.00
15529;BME280;7866;52.280;9.500;2023-12-07T16:24:39;100585.59;;;1.42;100.00
15529;BME280;7866;52.280;9.500;2023-12-07T16:29:40;100571.97;;;1.35;100.00
15529;BME280;7866;52.280;9.500;2023-12-07T16:34:43;100573.03;;;1.33;100.00
15529;BME280;7866;52.280;9.500;2023-12-07T16:39:45;100568.38;;;1.23;100.00
15529;BME280;7866;52.280;9.500;2023-12-07T16:44:48;100568.38;;;1.23;100.00
15529;BME280;7866;52.280;9.500;2023-12-07T16:49:53;100558.69;;;1.24;100.00
15529;BME280;7866;52.280;9.500;2023-12-07T16:54:55;100558.69;;;1.24;100.00
15529;BME280;7866;52.280;9.500;2023-12-07T16:59:57;100551.19;;;1.18;100.00
15529;BME280;7866;52.280;9.500;2023-12-07T17:05:00;100549.28;;;1.20;100.00
15529;BME280;7866;52.280;9.500;2023-12-07T17:10:02;100531.22;;;1.14;100.00
15529;BME280;7866;52.280;9.500;2023-12-07T17:15:05;100520.56;;;1.15;100.00
15529;BME280;7866;52.280;9.500;2023-12-07T17:20:09;100528.91;;;1.09;100.00
15529;BME280;7866;52.280;9.500;2023-12-07T17:25:10;100518.44;;;1.08;100.00
15529;BME280;7866;52.280;9.500;2023-12-07T17:30:15;100517.09;;;1.15;100.00
15529;BME280;7866;52.280;9.500;2023-12-07T17:35:18;100500.63;;;1.11;100.00
15529;BME280;7866;52.280;9.500;2023-12-07T17:40:20;100500.53;;;1.13;100.00
15529;BME280;7866;52.280;9.500;2023-12-07T17:45:21;100503.38;;;1.10;100.00
15529;BME280;7866;52.280;9.500;2023-12-07T17:50:24;100507.06;;;1.07;100.00
15529;BME280;7866;52.280;9.500;2023-12-07T17:55:26;100490.28;;;0.95;100.00
15529;BME280;7866;52.280;9.500;2023-12-07T18:00:28;100487.88;;;0.92;100.00
15529;BME280;7866;52.280;9.500;2023-12-07T18:05:31;100475.72;;;1.03;100.00
15529;BME280;7866;52.280;9.500;2023-12-07T18:10:33;100468.06;;;1.12;100.00
15529;BME280;7866;52.280;9.500;2023-12-07T18:15:34;100473.63;;;1.08;100.00
15529;BME280;7866;52.280;9.500;2023-12-07T18:20:37;100476.59;;;1.16;100.00
15529;BME280;7866;52.280;9.500;2023-12-07T18:25:39;100483.66;;;1.15;100.00
15529;BME280;7866;52.280;9.500;2023-12-07T18:30:41;100475.72;;;1.15;100.00
15529;BME280;7866;52.280;9.500;2023-12-07T18:35:45;100467.09;;;1.26;100.00
15529;BME280;7866;52.280;9.500;2023-12-07T18:40:46;100462.47;;;1.17;100.00
15529;BME280;7866;52.280;9.500;2023-12-07T18:45:48;100461.19;;;1.22;100.00
15529;BME280;7866;52.280;9.500;2023-12-07T18:50:52;100459.47;;;1.34;100.00
15529;BME280;7866;52.280;9.500;2023-12-07T18:55:55;100432.66;;;1.53;100.00
15529;BME280;7866;52.280;9.500;2023-12-07T19:00:57;100444.69;;;1.44;99.34
15529;BME280;7866;52.280;9.500;2023-12-07T19:06:00;100440.47;;;1.42;99.32
15529;BME280;7866;52.280;9.500;2023-12-07T19:11:03;100438.19;;;1.25;98.88
15529;BME280;7866;52.280;9.500;2023-12-07T19:16:06;100419.28;;;1.18;98.52
15529;BME280;7866;52.280;9.500;2023-12-07T19:21:09;100420.25;;;1.17;98.89
15529;BME280;7866;52.280;9.500;2023-12-07T19:26:11;100422.59;;;1.09;98.33
15529;BME280;7866;52.280;9.500;2023-12-07T19:31:12;100425.31;;;1.20;99.90
15529;BME280;7866;52.280;9.500;2023-12-07T19:36:16;100424.84;;;1.39;99.11
15529;BME280;7866;52.280;9.500;2023-12-07T19:41:18;100425.06;;;1.48;99.10
15529;BME280;7866;52.280;9.500;2023-12-07T19:46:19;100414.19;;;1.53;98.60
15529;BME280;7866;52.280;9.500;2023-12-07T19:51:23;100421.97;;;1.55;98.29
15529;BME280;7866;52.280;9.500;2023-12-07T19:56:25;100411.97;;;1.47;97.99
15529;BME280;7866;52.280;9.500;2023-12-07T20:01:27;100404.72;;;1.38;97.39
15529;BME280;7866;52.280;9.500;2023-12-07T20:06:30;100402.03;;;1.51;98.14
15529;BME280;7866;52.280;9.500;2023-12-07T20:11:32;100407.44;;;1.49;97.67
15529;BME280;7866;52.280;9.500;2023-12-07T20:16:33;100386.75;;;1.43;97.91
15529;BME280;7866;52.280;9.500;2023-12-07T20:21:41;100374.38;;;1.43;97.52
15529;BME280;7866;52.280;9.500;2023-12-07T20:26:42;100376.72;;;1.35;97.58
15529;BME280;7866;52.280;9.500;2023-12-07T20:31:44;100375.22;;;1.20;97.26
15529;BME280;7866;52.280;9.500;2023-12-07T20:36:49;100376.56;;;1.26;97.56
15529;BME280;7866;52.280;9.500;2023-12-07T20:41:51;100368.56;;;1.14;96.96
15529;BME280;7866;52.280;9.500;2023-12-07T20:46:53;100354.34;;;1.04;97.40
15529;BME280;7866;52.280;9.500;2023-12-07T20:51:56;100340.31;;;0.91;97.36
15529;BME280;7866;52.280;9.500;2023-12-07T20:56:57;100325.66;;;0.87;97.75
15529;BME280;7866;52.280;9.500;2023-12-07T21:01:59;100323.03;;;0.74;98.16
15529;BME280;7866;52.280;9.500;2023-12-07T21:07:02;100319.88;;;0.82;98.26
15529;BME280;7866;52.280;9.500;2023-12-07T21:12:05;100313.63;;;0.95;98.74
15529;BME280;7866;52.280;9.500;2023-12-07T21:17:06;100304.63;;;1.11;99.28
15529;BME280;7866;52.280;9.500;2023-12-07T21:22:09;100293.53;;;1.18;98.33
15529;BME280;7866;52.280;9.500;2023-12-07T21:27:11;100284.22;;;1.26;98.13
15529;BME280;7866;52.280;9.500;2023-12-07T21:32:13;100260.69;;;1.22;98.19
15529;BME280;7866;52.280;9.500;2023-12-07T21:37:16;100246.13;;;1.30;97.51
15529;BME280;7866;52.280;9.500;2023-12-07T21:42:17;100243.91;;;1.23;97.63
15529;BME280;7866;52.280;9.500;2023-12-07T21:47:19;100248.25;;;1.25;97.03
15529;BME280;7866;52.280;9.500;2023-12-07T21:52:22;100237.31;;;1.18;97.04
15529;BME280;7866;52.280;9.500;2023-12-07T21:57:24;100227.16;;;1.25;96.58
15529;BME280;7866;52.280;9.500;2023-12-07T22:02:25;100207.25;;;1.20;96.53
15529;BME280;7866;52.280;9.500;2023-12-07T22:07:28;100209.41;;;1.27;96.78
15529;BME280;7866;52.280;9.500;2023-12-07T22:12:30;100209.31;;;1.04;95.72
15529;BME280;7866;52.280;9.500;2023-12-07T22:17:32;100201.13;;;0.96;95.65
15529;BME280;7866;52.280;9.500;2023-12-07T22:22:37;100197.78;;;0.81;96.10
15529;BME280;7866;52.280;9.500;2023-12-07T22:27:41;100185.22;;;0.85;95.92
15529;BME280;7866;52.280;9.500;2023-12-07T22:32:42;100169.19;;;0.88;96.15
15529;BME280;7866;52.280;9.500;2023-12-07T22:37:45;100157.75;;;1.00;96.13
15529;BME280;7866;52.280;9.500;2023-12-07T22:42:47;100151.19;;;1.06;95.23
15529;BME280;7866;52.280;9.500;2023-12-07T22:47:49;100138.75;;;1.19;94.79
15529;BME280;7866;52.280;9.500;2023-12-07T22:52:52;100138.75;;;1.19;94.17
15529;BME280;7866;52.280;9.500;2023-12-07T22:57:53;100135.06;;;1.21;93.78
15529;BME280;7866;52.280;9.500;2023-12-07T23:02:55;100136.97;;;1.19;93.07
15529;BME280;7866;52.280;9.500;2023-12-07T23:07:58;100133.47;;;1.19;92.43
15529;BME280;7866;52.280;9.500;2023-12-07T23:13:00;100137.22;;;1.16;92.35
15529;BME280;7866;52.280;9.500;2023-12-07T23:18:02;100139.84;;;1.16;92.46
15529;BME280;7866;52.280;9.500;2023-12-07T23:23:05;100147.22;;;1.11;92.22
15529;BME280;7866;52.280;9.500;2023-12-07T23:28:06;100152.50;;;1.11;92.51
15529;BME280;7866;52.280;9.500;2023-12-07T23:33:08;100142.56;;;1.15;92.90
15529;BME280;7866;52.280;9.500;2023-12-07T23:38:11;100134.56;;;1.16;91.79
15529;BME280;7866;52.280;9.500;2023-12-07T23:43:13;100132.88;;;1.15;90.99
15529;BME280;7866;52.280;9.500;2023-12-07T23:48:15;100130.84;;;1.19;91.12
15529;BME280;7866;52.280;9.500;2023-12-07T23:53:18;100126.88;;;1.13;90.46
15529;BME280;7866;52.280;9.500;2023-12-07T23:58:19;100104.94;;;1.13;90.96
